createdAt,value
2019-01-30T00:00:48.674Z,69.38
2019-01-30T00:03:14.830Z,69.26
2019-01-30T00:05:41.018Z,69.37
2019-01-30T00:08:07.587Z,68.81
2019-01-30T00:10:33.839Z,68.78
2019-01-30T00:13:00.037Z,68.85
2019-01-30T00:15:26.305Z,69.05
2019-01-30T00:17:52.563Z,69.01
2019-01-30T00:20:18.759Z,69.28
2019-01-30T00:22:45.032Z,69.42
2019-01-30T00:25:12.490Z,69.34
2019-01-30T00:27:38.682Z,69.91
2019-01-30T00:30:19.561Z,70.05
2019-01-30T00:32:45.763Z,69.58
2019-01-30T00:35:11.922Z,70.63
2019-01-30T00:37:38.095Z,70.16
2019-01-30T00:40:07.691Z,70.05
2019-01-30T00:42:33.860Z,70.08
2019-01-30T00:45:00.023Z,69.85
2019-01-30T00:47:26.223Z,70.17
2019-01-30T00:49:52.484Z,69.92
2019-01-30T00:52:18.741Z,70.10
2019-01-30T00:54:45.030Z,70.26
2019-01-30T00:57:11.187Z,70.44
2019-01-30T00:59:37.350Z,70.99
2019-01-30T01:02:03.546Z,73.07
2019-01-30T01:04:29.715Z,72.09
2019-01-30T01:06:55.976Z,71.81
2019-01-30T01:09:22.173Z,71.80
2019-01-30T01:11:48.328Z,72.67
2019-01-30T01:14:14.707Z,73.15
2019-01-30T01:16:40.893Z,72.79
2019-01-30T01:19:07.144Z,72.26
2019-01-30T01:21:33.299Z,71.79
2019-01-30T01:23:59.497Z,71.31
2019-01-30T01:26:25.750Z,71.49
2019-01-30T01:28:51.908Z,71.37
2019-01-30T01:31:18.112Z,70.64
2019-01-30T01:33:44.372Z,71.19
2019-01-30T01:36:10.532Z,70.73
2019-01-30T01:38:36.821Z,70.03
2019-01-30T01:41:03.075Z,69.36
2019-01-30T01:43:29.282Z,68.31
2019-01-30T01:45:55.471Z,68.52
2019-01-30T01:48:21.626Z,68.99
2019-01-30T01:50:47.888Z,70.18
2019-01-30T01:53:14.086Z,70.14
2019-01-30T01:55:40.243Z,69.97
2019-01-30T01:58:06.413Z,69.96
2019-01-30T02:00:35.627Z,70.25
2019-01-30T02:03:00.881Z,69.74
2019-01-30T02:05:27.134Z,69.60
2019-01-30T02:07:53.320Z,69.57
2019-01-30T02:10:23.744Z,69.25
2019-01-30T02:12:50.218Z,68.40
2019-01-30T02:15:18.226Z,68.31
2019-01-30T02:17:44.481Z,68.29
2019-01-30T02:20:32.223Z,68.66
2019-01-30T02:22:58.388Z,68.42
2019-01-30T02:25:26.355Z,67.75
2019-01-30T02:27:52.665Z,67.62
2019-01-30T02:30:21.127Z,67.49
2019-01-30T02:32:47.284Z,67.20
2019-01-30T02:35:13.472Z,67.70
2019-01-30T02:37:39.733Z,68.04
2019-01-30T02:40:08.788Z,68.15
2019-01-30T02:42:35.073Z,68.04
2019-01-30T02:45:01.299Z,69.20
2019-01-30T02:47:27.443Z,69.65
2019-01-30T02:49:53.763Z,70.20
2019-01-30T02:52:19.926Z,70.43
2019-01-30T02:54:46.070Z,69.37
2019-01-30T02:57:12.374Z,68.59
2019-01-30T02:59:38.518Z,68.71
2019-01-30T03:02:09.335Z,69.05
2019-01-30T03:04:35.621Z,68.41
2019-01-30T03:07:01.781Z,68.75
2019-01-30T03:09:28.046Z,68.85
2019-01-30T03:11:54.351Z,68.16
2019-01-30T03:14:20.622Z,68.18
2019-01-30T03:16:47.012Z,67.85
2019-01-30T03:19:13.305Z,68.26
2019-01-30T03:21:39.567Z,68.03
2019-01-30T03:24:05.720Z,67.93
2019-01-30T03:26:32.003Z,68.12
2019-01-30T03:28:58.172Z,67.91
2019-01-30T03:31:24.345Z,67.93
2019-01-30T03:33:50.660Z,67.61
2019-01-30T03:36:16.813Z,67.17
2019-01-30T03:38:43.085Z,67.33
2019-01-30T03:41:09.367Z,67.67
2019-01-30T03:43:35.572Z,67.73
2019-01-30T03:46:01.877Z,67.81
2019-01-30T03:48:28.073Z,68.23
2019-01-30T03:50:54.329Z,68.41
2019-01-30T03:53:20.484Z,68.51
2019-01-30T03:55:46.691Z,69.67
2019-01-30T03:58:12.854Z,68.87
2019-01-30T04:00:39.018Z,68.53
2019-01-30T04:03:05.308Z,67.79
2019-01-30T04:05:31.483Z,68.23
2019-01-30T04:07:57.657Z,67.68
2019-01-30T04:10:23.944Z,67.71
2019-01-30T04:12:50.525Z,67.45
2019-01-30T04:15:16.992Z,67.67
2019-01-30T04:17:43.188Z,67.77
2019-01-30T04:20:12.556Z,68.03
2019-01-30T04:22:38.831Z,68.53
2019-01-30T04:25:06.740Z,69.85
2019-01-30T04:27:32.907Z,69.07
2019-01-30T04:29:59.166Z,68.35
2019-01-30T04:32:25.353Z,68.11
2019-01-30T04:34:51.510Z,67.84
2019-01-30T04:37:17.675Z,70.05
2019-01-30T04:39:44.018Z,69.17
2019-01-30T04:42:10.184Z,68.95
2019-01-30T04:44:36.358Z,68.82
2019-01-30T04:47:03.659Z,68.79
2019-01-30T04:49:29.829Z,68.84
2019-01-30T04:51:56.000Z,69.34
2019-01-30T04:54:22.212Z,69.71
2019-01-30T04:56:48.371Z,70.90
2019-01-30T04:59:14.627Z,70.36
2019-01-30T05:01:49.395Z,69.71
2019-01-30T05:04:08.896Z,70.05
2019-01-30T05:06:35.164Z,69.89
2019-01-30T05:09:01.461Z,69.46
2019-01-30T05:11:32.095Z,70.58
2019-01-30T05:13:58.255Z,69.88
2019-01-30T05:16:24.448Z,69.46
2019-01-30T05:18:50.713Z,69.35
2019-01-30T05:21:16.898Z,69.77
2019-01-30T05:23:43.092Z,69.75
2019-01-30T05:26:09.256Z,70.00
2019-01-30T05:28:35.417Z,70.44
2019-01-30T05:31:01.604Z,70.41
2019-01-30T05:33:27.862Z,70.20
2019-01-30T05:35:54.016Z,69.61
2019-01-30T05:38:20.306Z,70.57
2019-01-30T05:40:46.577Z,71.09
2019-01-30T05:43:12.728Z,70.45
2019-01-30T05:45:38.928Z,70.60
2019-01-30T05:48:06.035Z,70.46
2019-01-30T05:50:32.303Z,70.67
2019-01-30T05:52:58.489Z,70.77
2019-01-30T05:55:24.655Z,70.55
2019-01-30T05:57:50.909Z,70.21
2019-01-30T06:00:24.974Z,69.94
2019-01-30T06:02:51.238Z,70.01
2019-01-30T06:05:17.392Z,69.58
2019-01-30T06:07:43.597Z,69.99
2019-01-30T06:10:10.481Z,69.15
2019-01-30T06:12:36.630Z,69.04
2019-01-30T06:15:06.541Z,68.46
2019-01-30T06:17:32.801Z,68.25
2019-01-30T06:19:58.963Z,67.56
2019-01-30T06:22:25.157Z,66.89
2019-01-30T06:24:51.318Z,67.15
2019-01-30T06:27:17.476Z,68.33
2019-01-30T06:29:43.770Z,68.24
2019-01-30T06:32:09.928Z,68.69
2019-01-30T06:34:36.201Z,68.20
2019-01-30T06:37:02.591Z,67.55
2019-01-30T06:39:28.751Z,66.82
2019-01-30T06:41:54.922Z,67.21
2019-01-30T06:44:21.224Z,66.80
2019-01-30T06:46:47.387Z,67.40
2019-01-30T06:49:13.702Z,67.00
2019-01-30T06:51:39.908Z,67.09
2019-01-30T06:54:06.069Z,65.74
2019-01-30T06:56:32.332Z,63.96
2019-01-30T06:58:58.517Z,62.41
2019-01-30T07:01:24.676Z,62.01
2019-01-30T07:03:50.832Z,61.44
2019-01-30T07:06:17.124Z,60.34
2019-01-30T07:08:43.392Z,61.14
2019-01-30T07:11:10.777Z,58.36
2019-01-30T07:13:37.461Z,59.15
2019-01-30T07:18:29.962Z,60.45
2019-01-30T07:20:56.156Z,61.71
2019-01-30T07:23:22.320Z,60.37
2019-01-30T07:25:48.483Z,62.59
2019-01-30T07:28:14.691Z,62.53
2019-01-30T07:30:40.946Z,61.52
2019-01-30T07:33:07.108Z,59.79
2019-01-30T07:35:33.333Z,58.41
2019-01-30T07:37:59.664Z,57.04
2019-01-30T07:40:25.829Z,58.17
2019-01-30T07:42:52.133Z,55.71
2019-01-30T07:45:23.388Z,55.73
2019-01-30T07:47:49.557Z,55.05
2019-01-30T07:50:15.984Z,55.26
2019-01-30T07:52:42.555Z,53.17
2019-01-30T07:55:11.829Z,51.71
2019-01-30T07:57:38.135Z,51.63
2019-01-30T08:00:13.826Z,51.20
2019-01-30T08:02:40.111Z,52.25
2019-01-30T08:05:08.191Z,52.96
2019-01-30T08:07:34.358Z,55.45
2019-01-30T08:10:00.657Z,54.83
2019-01-30T08:12:26.817Z,53.27
2019-01-30T08:14:52.997Z,54.05
2019-01-30T08:17:21.024Z,53.12
2019-01-30T08:19:47.257Z,54.26
2019-01-30T08:22:13.455Z,53.27
2019-01-30T08:24:40.007Z,53.76
2019-01-30T08:27:06.420Z,52.01
2019-01-30T08:29:33.502Z,52.31
2019-01-30T08:31:59.931Z,50.28
2019-01-30T08:34:26.276Z,51.20
2019-01-30T08:36:52.449Z,51.48
2019-01-30T08:39:18.679Z,50.98
2019-01-30T08:41:45.035Z,50.13
2019-01-30T08:44:11.211Z,50.84
2019-01-30T08:46:37.424Z,51.36
2019-01-30T08:49:03.701Z,49.61
2019-01-30T08:51:29.948Z,49.60
2019-01-30T08:53:56.156Z,47.68
2019-01-30T08:56:22.423Z,48.85
2019-01-30T08:58:48.689Z,50.04
2019-01-30T09:01:14.893Z,50.99
2019-01-30T09:03:41.169Z,51.41
2019-01-30T09:06:07.436Z,51.25
2019-01-30T09:08:33.634Z,49.97
2019-01-30T09:10:59.815Z,51.39
2019-01-30T09:13:26.581Z,50.64
2019-01-30T09:15:52.883Z,51.49
2019-01-30T09:18:19.059Z,49.71
2019-01-30T09:20:45.338Z,51.87
2019-01-30T09:23:11.940Z,51.21
2019-01-30T09:25:38.107Z,50.67
2019-01-30T09:28:04.311Z,50.24
2019-01-30T09:30:33.213Z,51.11
2019-01-30T09:32:59.409Z,50.18
2019-01-30T09:35:25.763Z,49.51
2019-01-30T09:37:51.964Z,49.83
2019-01-30T09:40:19.819Z,51.59
2019-01-30T09:42:46.032Z,49.44
2019-01-30T09:45:17.255Z,47.62
2019-01-30T09:47:43.484Z,48.73
2019-01-30T09:50:13.171Z,48.34
2019-01-30T09:52:39.426Z,47.28
2019-01-30T09:55:08.597Z,49.09
2019-01-30T09:57:34.772Z,47.53
2019-01-30T10:00:01.396Z,44.36
2019-01-30T10:02:27.572Z,43.33
2019-01-30T10:04:53.729Z,45.54
2019-01-30T10:07:20.073Z,43.66
2019-01-30T10:09:46.842Z,44.81
2019-01-30T10:12:13.103Z,46.50
2019-01-30T10:14:42.110Z,44.76
2019-01-30T10:17:08.693Z,46.12
2019-01-30T10:19:34.908Z,44.16
2019-01-30T10:22:01.096Z,44.42
2019-01-30T10:24:29.043Z,46.61
2019-01-30T10:26:58.402Z,45.21
2019-01-30T10:29:24.602Z,45.26
2019-01-30T10:31:50.780Z,44.92
2019-01-30T10:34:17.069Z,46.10
2019-01-30T10:36:43.376Z,46.55
2019-01-30T10:39:09.533Z,47.05
2019-01-30T10:41:37.217Z,45.98
2019-01-30T10:44:03.511Z,46.12
2019-01-30T10:46:29.673Z,47.70
2019-01-30T10:48:55.832Z,47.54
2019-01-30T10:51:22.023Z,47.84
2019-01-30T10:53:49.275Z,48.25
2019-01-30T10:56:16.644Z,48.24
2019-01-30T10:58:42.963Z,47.94
2019-01-30T11:01:09.233Z,47.11
2019-01-30T11:03:35.412Z,47.43
2019-01-30T11:06:01.617Z,48.16
2019-01-30T11:08:27.788Z,47.65
2019-01-30T11:10:53.957Z,46.94
2019-01-30T11:13:20.318Z,47.92
2019-01-30T11:15:46.561Z,45.75
2019-01-30T11:18:14.653Z,43.27
2019-01-30T11:20:40.877Z,44.99
2019-01-30T11:23:07.061Z,45.88
2019-01-30T11:25:36.727Z,44.99
2019-01-30T11:28:03.016Z,45.63
2019-01-30T11:30:29.271Z,43.63
2019-01-30T11:32:55.674Z,45.71
2019-01-30T11:35:22.022Z,45.41
2019-01-30T11:37:48.188Z,46.78
2019-01-30T11:40:19.406Z,46.89
2019-01-30T11:42:45.729Z,46.58
2019-01-30T11:45:17.436Z,47.05
2019-01-30T11:47:43.707Z,47.99
2019-01-30T11:50:12.795Z,45.40
2019-01-30T11:52:39.560Z,46.65
2019-01-30T11:55:08.936Z,46.16
2019-01-30T11:57:35.150Z,44.43
2019-01-30T12:00:01.406Z,44.95
2019-01-30T12:02:27.660Z,44.93
2019-01-30T12:04:53.961Z,44.70
2019-01-30T12:07:20.234Z,43.13
2019-01-30T12:09:46.402Z,44.75
2019-01-30T12:12:12.595Z,44.41
2019-01-30T12:14:38.756Z,42.97
2019-01-30T12:17:05.007Z,42.41
2019-01-30T12:19:31.217Z,44.31
2019-01-30T12:21:57.489Z,45.48
2019-01-30T12:24:23.666Z,46.12
2019-01-30T12:26:49.868Z,46.57
2019-01-30T12:29:16.144Z,45.88
2019-01-30T12:31:42.413Z,45.52
2019-01-30T12:34:09.815Z,44.92
2019-01-30T12:36:36.112Z,45.71
2019-01-30T12:39:07.678Z,44.37
2019-01-30T12:41:35.724Z,44.40
2019-01-30T12:44:01.953Z,43.76
2019-01-30T12:46:28.222Z,44.42
2019-01-30T12:48:54.638Z,44.32
2019-01-30T12:51:20.895Z,43.72
2019-01-30T12:53:47.159Z,43.73
2019-01-30T12:56:13.498Z,45.37
2019-01-30T12:58:39.666Z,46.51
2019-01-30T13:01:05.944Z,45.37
2019-01-30T13:03:32.247Z,45.81
2019-01-30T13:05:58.503Z,45.38
2019-01-30T13:08:24.660Z,46.23
2019-01-30T13:10:50.850Z,44.37
2019-01-30T13:13:16.998Z,45.29
2019-01-30T13:15:43.266Z,43.78
2019-01-30T13:18:17.903Z,43.63
2019-01-30T13:20:37.728Z,46.18
2019-01-30T13:23:04.284Z,45.04
2019-01-30T13:25:30.979Z,45.51
2019-01-30T13:27:57.345Z,46.61
2019-01-30T13:30:29.579Z,45.83
2019-01-30T13:32:56.079Z,43.84
2019-01-30T13:35:22.548Z,43.94
2019-01-30T13:37:48.701Z,43.20
2019-01-30T13:40:21.200Z,43.85
2019-01-30T13:42:47.465Z,42.46
2019-01-30T13:45:13.641Z,42.64
2019-01-30T13:47:40.286Z,42.50
2019-01-30T13:50:12.642Z,43.85
2019-01-30T13:52:38.807Z,44.60
2019-01-30T13:55:07.443Z,44.79
2019-01-30T13:57:34.784Z,44.22
2019-01-30T14:00:00.994Z,44.70
2019-01-30T14:02:27.279Z,45.24
2019-01-30T14:04:59.375Z,43.96
2019-01-30T14:07:21.508Z,44.92
2019-01-30T14:09:47.819Z,44.07
2019-01-30T14:12:14.051Z,45.04
2019-01-30T14:14:40.321Z,46.08
2019-01-30T14:17:06.629Z,44.23
2019-01-30T14:19:32.911Z,45.03
2019-01-30T14:21:59.103Z,44.93
2019-01-30T14:24:25.310Z,44.49
2019-01-30T14:26:51.483Z,44.98
2019-01-30T14:29:17.806Z,47.52
2019-01-30T14:31:44.113Z,47.41
2019-01-30T14:34:10.283Z,47.41
2019-01-30T14:36:36.473Z,48.26
2019-01-30T14:39:05.836Z,48.06
2019-01-30T14:41:32.089Z,48.57
2019-01-30T14:43:58.252Z,47.69
2019-01-30T14:46:24.464Z,48.13
2019-01-30T14:48:50.649Z,47.65
2019-01-30T14:51:16.778Z,49.73
2019-01-30T14:53:42.992Z,49.65
2019-01-30T14:56:09.161Z,49.59
2019-01-30T14:58:35.339Z,50.37
2019-01-30T15:01:01.541Z,50.11
2019-01-30T15:03:31.620Z,50.43
2019-01-30T15:05:57.823Z,50.07
2019-01-30T15:08:24.015Z,50.60
2019-01-30T15:10:50.341Z,51.99
2019-01-30T15:13:16.660Z,50.78
2019-01-30T15:15:44.268Z,50.16
2019-01-30T15:18:10.694Z,50.15
2019-01-30T15:20:36.821Z,50.20
2019-01-30T15:23:04.629Z,50.03
2019-01-30T15:25:30.893Z,50.15
2019-01-30T15:27:57.059Z,50.40
2019-01-30T15:30:32.269Z,50.62
2019-01-30T15:32:58.443Z,50.50
2019-01-30T15:35:33.270Z,49.57
2019-01-30T15:37:52.809Z,49.45
2019-01-30T15:40:24.604Z,48.95
2019-01-30T15:42:50.771Z,48.64
2019-01-30T15:45:19.383Z,49.34
2019-01-30T15:47:45.543Z,50.57
2019-01-30T15:50:14.715Z,52.06
2019-01-30T15:52:40.918Z,51.03
2019-01-30T15:55:09.781Z,51.34
2019-01-30T15:57:35.939Z,51.85
2019-01-30T16:00:05.902Z,51.09
2019-01-30T16:02:32.177Z,50.74
2019-01-30T16:04:58.344Z,50.93
2019-01-30T16:07:24.546Z,50.69
2019-01-30T16:09:50.719Z,51.78
2019-01-30T16:12:16.888Z,51.36
2019-01-30T16:14:43.082Z,51.04
2019-01-30T16:17:09.243Z,51.32
2019-01-30T16:19:35.670Z,51.62
2019-01-30T16:22:01.871Z,51.08
2019-01-30T16:24:28.139Z,50.93
2019-01-30T16:26:54.301Z,51.92
2019-01-30T16:29:20.519Z,50.84
2019-01-30T16:31:46.786Z,51.66
2019-01-30T16:34:14.298Z,51.08
2019-01-30T16:36:40.500Z,50.71
2019-01-30T16:39:08.116Z,50.76
2019-01-30T16:41:34.282Z,50.70
2019-01-30T16:44:00.489Z,51.35
2019-01-30T16:46:26.765Z,52.32
2019-01-30T16:48:57.381Z,53.08
2019-01-30T16:51:30.207Z,52.68
2019-01-30T16:53:56.360Z,52.72
2019-01-30T16:56:22.630Z,53.60
2019-01-30T16:58:48.922Z,52.76
2019-01-30T17:01:15.196Z,52.79
2019-01-30T17:03:41.456Z,52.52
2019-01-30T17:06:07.936Z,52.38
2019-01-30T17:08:34.472Z,52.22
2019-01-30T17:11:00.766Z,52.40
2019-01-30T17:13:26.958Z,52.39
2019-01-30T17:15:53.117Z,52.52
2019-01-30T17:18:19.388Z,54.01
2019-01-30T17:20:45.682Z,54.08
2019-01-30T17:23:11.847Z,54.24
2019-01-30T17:25:38.661Z,55.84
2019-01-30T17:28:04.849Z,55.90
2019-01-30T17:30:37.248Z,54.57
2019-01-30T17:33:03.706Z,55.56
2019-01-30T17:35:29.914Z,55.34
2019-01-30T17:37:56.084Z,54.95
2019-01-30T17:40:24.162Z,55.07
2019-01-30T17:42:50.362Z,53.64
2019-01-30T17:45:16.628Z,54.83
2019-01-30T17:47:43.193Z,55.76
2019-01-30T17:50:15.640Z,58.16
2019-01-30T17:52:41.807Z,57.00
2019-01-30T17:55:08.184Z,58.29
2019-01-30T17:57:34.463Z,59.19
2019-01-30T18:00:00.734Z,59.45
2019-01-30T18:02:27.731Z,59.57
2019-01-30T18:04:53.933Z,60.54
2019-01-30T18:07:20.110Z,61.24
2019-01-30T18:09:46.295Z,61.96
2019-01-30T18:12:12.756Z,63.16
2019-01-30T18:14:38.928Z,64.26
2019-01-30T18:17:05.121Z,63.88
2019-01-30T18:19:31.425Z,63.27
2019-01-30T18:21:57.686Z,63.56
2019-01-30T18:24:23.853Z,63.50
2019-01-30T18:26:50.052Z,63.60
2019-01-30T18:29:16.236Z,63.56
2019-01-30T18:31:42.404Z,65.27
2019-01-30T18:34:08.842Z,70.02
2019-01-30T18:36:41.045Z,70.64
2019-01-30T18:39:07.272Z,71.87
2019-01-30T18:41:33.573Z,72.34
2019-01-30T18:43:59.726Z,71.74
2019-01-30T18:46:25.991Z,71.77
2019-01-30T18:48:52.170Z,72.43
2019-01-30T18:51:18.329Z,72.66
2019-01-30T18:53:44.501Z,74.18
2019-01-30T18:56:10.713Z,73.78
2019-01-30T18:58:36.868Z,74.77
2019-01-30T19:01:03.428Z,76.88
2019-01-30T19:03:29.690Z,76.54
2019-01-30T19:05:55.858Z,75.73
2019-01-30T19:08:22.016Z,75.30
2019-01-30T19:10:48.477Z,74.94
2019-01-30T19:13:14.655Z,76.10
2019-01-30T19:15:40.810Z,77.09
2019-01-30T19:18:07.098Z,76.78
2019-01-30T19:20:39.354Z,75.62
2019-01-30T19:23:07.018Z,75.15
2019-01-30T19:25:33.401Z,74.75
2019-01-30T19:27:59.552Z,74.39
2019-01-30T19:30:28.620Z,73.46
2019-01-30T19:32:54.908Z,72.81
2019-01-30T19:35:21.272Z,71.93
2019-01-30T19:37:47.428Z,72.19
2019-01-30T19:40:14.729Z,72.56
2019-01-30T19:42:40.896Z,72.20
2019-01-30T19:45:10.564Z,73.46
2019-01-30T19:47:36.747Z,73.09
2019-01-30T19:50:06.634Z,73.50
2019-01-30T19:52:32.796Z,72.79
2019-01-30T19:54:59.032Z,72.40
2019-01-30T19:57:25.357Z,73.62
2019-01-30T19:59:51.519Z,73.73
2019-01-30T20:02:17.735Z,73.03
2019-01-30T20:04:44.018Z,73.24
2019-01-30T20:07:14.744Z,74.31
2019-01-30T20:09:38.698Z,74.91
2019-01-30T20:12:04.952Z,75.16
2019-01-30T20:14:31.105Z,75.52
2019-01-30T20:16:57.303Z,75.85
2019-01-30T20:19:23.464Z,75.35
2019-01-30T20:21:49.939Z,76.12
2019-01-30T20:24:16.140Z,76.02
2019-01-30T20:26:42.399Z,76.18
2019-01-30T20:29:08.562Z,76.18
2019-01-30T20:31:34.863Z,75.94
2019-01-30T20:34:09.917Z,76.35
2019-01-30T20:36:29.222Z,75.95
2019-01-30T20:38:55.482Z,75.56
2019-01-30T20:41:21.644Z,75.18
2019-01-30T20:43:47.795Z,75.96
2019-01-30T20:46:14.000Z,76.49
2019-01-30T20:48:47.187Z,75.81
2019-01-30T20:51:08.440Z,76.71
2019-01-30T20:53:34.622Z,76.93
2019-01-30T20:56:00.776Z,76.98
2019-01-30T20:58:27.242Z,77.13
2019-01-30T21:00:53.441Z,78.94
2019-01-30T21:03:19.593Z,76.13
2019-01-30T21:05:45.905Z,76.49
2019-01-30T21:08:12.200Z,77.01
2019-01-30T21:10:39.062Z,77.96
2019-01-30T21:13:05.632Z,76.98
2019-01-30T21:15:31.820Z,75.58
2019-01-30T21:17:57.989Z,75.70
2019-01-30T21:20:24.251Z,75.48
2019-01-30T21:22:50.438Z,75.64
2019-01-30T21:25:20.741Z,75.46
2019-01-30T21:27:47.603Z,76.83
2019-01-30T21:30:26.397Z,77.14
2019-01-30T21:32:52.556Z,77.10
2019-01-30T21:35:19.559Z,76.16
2019-01-30T21:37:48.938Z,75.70
2019-01-30T21:40:16.223Z,75.72
2019-01-30T21:42:42.705Z,75.79
2019-01-30T21:45:15.000Z,76.08
2019-01-30T21:47:41.161Z,76.37
2019-01-30T21:50:08.612Z,75.90
2019-01-30T21:52:34.903Z,75.91
2019-01-30T21:55:01.072Z,75.23
2019-01-30T21:57:27.213Z,75.16
2019-01-30T21:59:53.400Z,75.04
2019-01-30T22:02:19.555Z,75.29
2019-01-30T22:04:45.711Z,74.54
2019-01-30T22:07:11.951Z,74.34
2019-01-30T22:09:38.095Z,74.75
2019-01-30T22:12:04.359Z,74.31
2019-01-30T22:14:30.549Z,74.67
2019-01-30T22:16:56.713Z,75.55
2019-01-30T22:19:22.868Z,76.12
2019-01-30T22:21:49.359Z,76.27
2019-01-30T22:24:15.517Z,76.79
2019-01-30T22:26:41.688Z,76.33
2019-01-30T22:29:07.873Z,77.16
2019-01-30T22:31:34.136Z,77.02
2019-01-30T22:34:00.302Z,77.48
2019-01-30T22:36:26.483Z,77.07
2019-01-30T22:38:52.631Z,77.21
2019-01-30T22:41:18.779Z,76.44
2019-01-30T22:43:44.972Z,75.47
2019-01-30T22:46:11.128Z,75.73
2019-01-30T22:48:37.289Z,75.61
2019-01-30T22:51:03.480Z,74.50
2019-01-30T22:53:29.642Z,74.89
2019-01-30T22:55:55.801Z,74.47
2019-01-30T22:58:21.991Z,74.40
2019-01-30T23:00:59.634Z,73.36
2019-01-30T23:03:38.728Z,74.17
2019-01-30T23:06:28.082Z,75.78
2019-01-30T23:09:31.464Z,75.66
2019-01-30T23:12:13.314Z,73.61
2019-01-30T23:14:43.108Z,74.13
2019-01-30T23:17:19.121Z,74.27
2019-01-30T23:19:48.921Z,74.19
2019-01-30T23:22:24.472Z,73.54
2019-01-30T23:25:06.044Z,73.75
2019-01-30T23:27:38.560Z,73.66
2019-01-30T23:30:31.278Z,72.70
2019-01-30T23:33:18.631Z,72.98
2019-01-30T23:35:54.260Z,72.56
2019-01-30T23:38:46.690Z,72.45
2019-01-30T23:41:31.277Z,73.06
2019-01-30T23:44:06.962Z,72.68
2019-01-30T23:46:56.635Z,72.86
2019-01-30T23:49:32.383Z,72.87
2019-01-30T23:52:17.470Z,71.69
2019-01-30T23:55:05.144Z,72.78
2019-01-30T23:57:41.144Z,72.73
